Terminal Aerodrome Forecast
Issued by NWS

Home | Current Version | Previous Version | Text Only | Print | Product List | Glossary On
Versions: 1 2 3 4 5 6 7 8 9 10 11 12
000
FTUS44 KTSA 040500
TAFBVO
TAF
KBVO 040520Z 0406/0506 18005KT P6SM BKN250
     FM041400 19012G21KT P6SM BKN250
     FM050100 17007KT P6SM SCT250=

USA.gov is the U.S. government's official web portal to all federal, state and local government web resources and services.